Flight Track Log - Related Links

Times and Time Zones

All times are in EDT time to prevent confusion due to time zone crossing. See the LOF3416 flight status page for this flight to view local times or setup timezone preferences in your user account.

Time Position Orientation Groundspeed Altitude Reporting Facility
EDT Latitude Longitude Course Direction KTS MPH feet Rate Location/Type
Sat 01:14:17 PM 41.9167 -87.9167 207° Southwest 181 208 3,300  Level Chicago TRACON
Sat 01:15:56 PM 41.7983 -87.9214 182° South 253 291 5,600 1,640 Climbing Chicago Center
Sat 01:16:58 PM 41.7272 -87.9469 195° South 272 313 7,700 2,129 Climbing Chicago Center
Sat 01:18:00 PM 41.6603 -87.9950 208° Southwest 277 319 10,000 1,694 Climbing Chicago Center
Sat 01:19:00 PM 41.3803 -88.6641 207° Southwest  Level Estimated
Sat 01:19:02 PM 41.5875 -88.0467 208° Southwest 295 339 11,200  Level Chicago Center
Sat 01:20:04 PM 41.5078 -88.1053 209° Southwest 328 377 12,700 1,694 Climbing Chicago Center
Sat 01:21:06 PM 41.4117 -88.1747 208° Southwest 340 391 14,700 1,694 Climbing Chicago Center
Sat 01:22:08 PM 41.3217 -88.2183 200° South 353 406 16,200 1,452 Climbing Chicago Center
Sat 01:23:10 PM 41.2286 -88.2597 198° South 356 410 17,700 1,500 Climbing Chicago Center
Sat 01:24:12 PM 41.1139 -88.3119 199° South 365 420 19,300 1,610 Climbing Chicago Center
Sat 01:25:13 PM 41.0161 -88.3556 199° South 373 429 21,000 1,707 Climbing Chicago Center
Sat 01:26:15 PM 40.9200 -88.3978 198° South 367 422 22,800 1,790 Climbing Chicago Center
Sat 01:27:17 PM 40.8256 -88.4408 199° South 362 417 24,700 1,742 Climbing Chicago Center
Sat 01:28:19 PM 40.7336 -88.4822 199° South 353 406 26,400 1,258 Climbing Chicago Center
Sat 01:29:21 PM 40.6617 -88.5675 222° Southwest 357 411 27,300 774 Climbing Chicago Center
Sat 01:30:23 PM 40.5811 -88.6931 230° Southwest 371 427 28,000 339 Climbing Chicago Center
Sat 01:31:25 PM 40.5083 -88.8067 230° Southwest 397 457 28,000  Level Chicago Center
Sat 01:32:27 PM 40.4289 -88.9272 229° Southwest 424 488 28,000  Level Chicago Center
Sat 01:33:29 PM 40.3450 -89.0539 229° Southwest 444 511 28,000  Level Chicago Center
Sat 01:34:31 PM 40.2619 -89.1828 230° Southwest 458 527 28,000  Level Chicago Center
Sat 01:35:33 PM 40.1767 -89.3139 230° Southwest 468 539 28,000  Level Chicago Center
Sat 01:36:28 PM 40.0897 -89.4442 229° Southwest 466 536 28,000  Level Kansas City Center
Sat 01:37:30 PM 40.0053 -89.5750 230° Southwest 467 537 28,000  Level Kansas City Center
Sat 01:38:32 PM 39.9194 -89.7036 229° Southwest 468 539 28,000  Level Kansas City Center
Sat 01:39:34 PM 39.8331 -89.8306 228° Southwest 467 537 28,000  Level Kansas City Center
Sat 01:40:36 PM 39.7478 -89.9592 229° Southwest 468 539 28,000  Level Kansas City Center
Sat 01:41:38 PM 39.6556 -90.0944 229° Southwest 471 542 28,000  Level Kansas City Center
Sat 01:42:39 PM 39.5694 -90.2228 229° Southwest 472 543 28,000  Level Kansas City Center
Sat 01:43:41 PM 39.4825 -90.3519 229° Southwest 475 547 28,000  Level Kansas City Center
Sat 01:44:43 PM 39.3781 -90.5058 229° Southwest 476 548 28,000  Level Kansas City Center
Sat 01:45:45 PM 39.2906 -90.6333 228° Southwest 478 550 28,000  Level Kansas City Center
Sat 01:46:47 PM 39.2028 -90.7606 228° Southwest 479 551 28,000  Level Kansas City Center
Sat 01:47:49 PM 39.1158 -90.8883 229° Southwest 478 550 28,000  Level Kansas City Center
Sat 01:48:51 PM 39.0269 -91.0178 229° Southwest 483 556 28,000  Level Kansas City Center
Sat 01:49:53 PM 38.9203 -91.1694 228° Southwest 482 555 28,000  Level Kansas City Center
Sat 01:50:55 PM 38.8314 -91.2986 229° Southwest 485 558 28,000  Level Kansas City Center
Sat 01:51:57 PM 38.7431 -91.4267 229° Southwest 483 556 28,000  Level Kansas City Center
Sat 01:52:59 PM 38.6408 -91.5694 228° Southwest 484 557 28,000  Level Kansas City Center
Sat 01:54:01 PM 38.5503 -91.6975 228° Southwest 484 557 28,000  Level Kansas City Center
Sat 01:55:03 PM 38.4600 -91.8256 228° Southwest 484 557 28,000 -683 Level Kansas City Center
Sat 01:56:04 PM 38.3681 -91.9514 227° Southwest 484 557 26,600 -1,902 Descending Kansas City Center
Sat 01:57:06 PM 38.2800 -92.0744 228° Southwest 475 547 24,100 -2,419 Descending Kansas City Center
Sat 01:58:08 PM 38.1944 -92.1917 227° Southwest 459 528 21,600 -2,565 Descending Kansas City Center
Sat 01:59:10 PM 38.1092 -92.3092 227° Southwest 434 499 18,800 -2,516 Descending Kansas City Center
Sat 02:00:12 PM 38.0319 -92.4203 229° Southwest 425 489 16,400 -1,403 Descending Kansas City Center
Sat 02:01:14 PM 37.9544 -92.5258 227° Southwest 413 475 15,900 -242 Descending Kansas City Center
Sat 02:02:16 PM 37.8617 -92.6494 226° Southwest 406 467 15,900  Level Kansas City Center
Sat 02:03:18 PM 37.7817 -92.7594 227° Southwest 398 458 15,900  Level Kansas City Center
Sat 02:04:20 PM 37.7061 -92.8625 227° Southwest 400 460 15,900 -1,024 Level Kansas City Center
Sat 02:05:21 PM 37.6361 -92.9558 227° Southwest 383 441 13,800 -2,439 Descending Kansas City Center
Sat 02:06:23 PM 37.5692 -93.0467 227° Southwest 365 420 10,900 -1,984 Descending Kansas City Center
Sat 02:07:25 PM 37.5072 -93.1300 227° Southwest 338 389 9,700 -1,403 Descending Kansas City Center
Sat 02:08:27 PM 37.4528 -93.2036 227° Southwest 297 342 8,000 -1,597 Descending Kansas City Center
Sat 02:09:29 PM 37.4022 -93.2731 228° Southwest 281 323 6,400 -1,790 Descending Kansas City Center
Sat 02:10:31 PM 37.3381 -93.3461 222° Southwest 266 306 4,300 -1,366 Descending Kansas City Center
Sat 02:11:32 PM 37.3244 -93.4183 257° West 241 277 3,600 -683 Descending Kansas City Center
Sat 02:12:34 PM 37.3242 -93.4719 270° West 217 250 2,900 -677 Descending Kansas City Center
Sat 02:14:00 PM 37.2457 -93.3886 219° Southwest  Level Estimated
Sat 02:21:00 PM 37.2457 -93.3886 219° Southwest  Level Estimated
Sat 02:22:00 PM 37.2457 -93.3886 219° Southwest  Level Estimated
Sat 02:23:00 PM 37.2457 -93.3886 219° Southwest  Level Estimated

Login

Don't have an account? Register now (free) for customized features, flight alerts, and more!